createdAt,value
2022-09-07T00:01:22.427Z,5.50
2022-09-07T00:03:50.971Z,4.25
2022-09-07T00:06:19.460Z,5.00
2022-09-07T00:08:47.995Z,6.00
2022-09-07T00:11:21.185Z,5.25
2022-09-07T00:13:51.453Z,6.25
2022-09-07T00:16:24.149Z,4.00
2022-09-07T00:18:56.624Z,5.00
2022-09-07T00:21:25.670Z,3.75
2022-09-07T00:23:55.297Z,5.00
2022-09-07T00:26:26.825Z,5.00
2022-09-07T00:28:59.838Z,3.75
2022-09-07T00:31:29.488Z,4.25
2022-09-07T00:34:01.121Z,4.00
2022-09-07T00:36:30.075Z,3.75
2022-09-07T00:38:59.622Z,4.00
2022-09-07T00:41:29.537Z,3.75
2022-09-07T00:44:00.749Z,3.00
2022-09-07T00:46:33.185Z,5.00
2022-09-07T00:49:10.288Z,6.25
2022-09-07T00:52:01.985Z,5.00
2022-09-07T00:54:41.220Z,5.00
2022-09-07T00:57:11.089Z,4.00
2022-09-07T00:59:45.602Z,6.00
2022-09-07T01:02:17.600Z,5.75
2022-09-07T01:04:51.001Z,5.75
2022-09-07T01:07:20.560Z,4.00
2022-09-07T01:09:49.574Z,5.50
2022-09-07T01:12:18.142Z,6.00
2022-09-07T01:14:51.643Z,4.75
2022-09-07T01:17:23.258Z,6.25
2022-09-07T01:20:08.986Z,7.25
2022-09-07T01:22:55.552Z,6.00
2022-09-07T01:25:42.938Z,7.00
2022-09-07T01:28:18.253Z,7.00
2022-09-07T01:31:19.901Z,5.25
2022-09-07T01:34:01.730Z,7.00
2022-09-07T01:36:35.893Z,7.00
2022-09-07T01:39:06.669Z,7.25
2022-09-07T01:42:02.708Z,7.00
2022-09-07T01:45:12.507Z,5.75
2022-09-07T01:47:44.458Z,7.75
2022-09-07T01:50:24.948Z,9.75
2022-09-07T01:53:07.902Z,10.00
2022-09-07T01:55:45.731Z,10.50
2022-09-07T01:58:26.452Z,9.00
2022-09-07T02:01:02.983Z,8.00
2022-09-07T02:03:49.307Z,9.00
2022-09-07T02:06:21.180Z,8.25
2022-09-07T02:09:01.414Z,6.00
2022-09-07T02:11:39.767Z,7.25
2022-09-07T02:14:30.608Z,7.00
2022-09-07T02:17:09.584Z,8.00
2022-09-07T02:19:48.292Z,7.25
2022-09-07T02:22:22.135Z,6.50
2022-09-07T02:24:55.540Z,7.50
2022-09-07T02:27:39.962Z,8.50
2022-09-07T02:30:09.316Z,9.00
2022-09-07T02:32:38.030Z,11.00
2022-09-07T02:35:07.715Z,8.25
2022-09-07T02:37:38.066Z,9.25
2022-09-07T02:40:07.181Z,9.50
2022-09-07T02:42:37.571Z,8.75
2022-09-07T02:45:09.685Z,8.25
2022-09-07T02:47:41.279Z,10.00
2022-09-07T02:50:31.857Z,7.00
2022-09-07T02:53:23.388Z,8.00
2022-09-07T02:56:10.837Z,9.00
2022-09-07T02:59:09.327Z,8.00
2022-09-07T03:02:06.790Z,7.00
2022-09-07T03:04:38.381Z,7.75
2022-09-07T03:07:44.091Z,8.00
2022-09-07T03:10:15.157Z,6.75
2022-09-07T03:12:49.438Z,8.00
2022-09-07T03:15:21.829Z,7.25
2022-09-07T03:17:50.667Z,7.75
2022-09-07T03:20:20.183Z,9.00
2022-09-07T03:22:50.426Z,8.25
2022-09-07T03:25:20.305Z,7.50
2022-09-07T03:27:48.932Z,9.25
2022-09-07T03:30:17.547Z,8.75
2022-09-07T03:32:46.142Z,7.75
2022-09-07T03:35:15.562Z,7.00
2022-09-07T03:37:44.225Z,9.00
2022-09-07T03:40:15.330Z,7.25
2022-09-07T03:42:44.132Z,9.00
2022-09-07T03:45:12.983Z,8.25
2022-09-07T03:47:42.228Z,10.25
2022-09-07T03:50:11.072Z,9.00
2022-09-07T03:52:39.949Z,7.50
2022-09-07T03:55:08.925Z,12.00
2022-09-07T03:57:37.569Z,9.00
2022-09-07T04:00:06.796Z,10.00
2022-09-07T04:02:35.416Z,9.50
2022-09-07T04:05:04.028Z,9.75
2022-09-07T04:07:32.627Z,9.25
2022-09-07T04:10:01.134Z,10.00
2022-09-07T04:12:30.006Z,10.00
2022-09-07T04:14:58.583Z,9.00
2022-09-07T04:17:27.130Z,11.00
2022-09-07T04:19:55.914Z,7.75
2022-09-07T04:22:24.610Z,8.00
2022-09-07T04:24:53.125Z,9.00
2022-09-07T04:27:21.740Z,10.25
2022-09-07T04:29:50.297Z,10.00
2022-09-07T04:32:18.884Z,10.25
2022-09-07T04:34:47.549Z,8.75
2022-09-07T04:37:16.064Z,8.50
2022-09-07T04:39:44.624Z,8.75
2022-09-07T04:42:13.459Z,9.00
2022-09-07T04:44:42.005Z,9.25
2022-09-07T04:47:10.950Z,7.00
2022-09-07T04:49:39.616Z,8.50
2022-09-07T04:52:08.281Z,10.50
2022-09-07T04:54:36.838Z,10.00
2022-09-07T04:57:05.443Z,9.75
2022-09-07T04:59:34.069Z,7.50
2022-09-07T05:02:02.696Z,8.25
2022-09-07T05:04:31.264Z,9.50
2022-09-07T05:06:59.830Z,9.75
2022-09-07T05:09:28.491Z,8.50
2022-09-07T05:11:57.172Z,8.00
2022-09-07T05:14:25.805Z,8.00
2022-09-07T05:16:54.314Z,8.00
2022-09-07T05:19:22.887Z,8.75
2022-09-07T05:21:51.404Z,10.00
2022-09-07T05:24:20.208Z,7.75
2022-09-07T05:26:48.695Z,8.00
2022-09-07T05:32:06.025Z,9.25
2022-09-07T05:34:34.602Z,9.50
2022-09-07T05:37:03.850Z,8.50
2022-09-07T05:39:32.729Z,9.00
2022-09-07T05:42:01.314Z,9.25
2022-09-07T05:44:45.740Z,8.75
2022-09-07T05:47:15.396Z,9.00
2022-09-07T05:49:44.132Z,7.50
2022-09-07T05:52:12.968Z,10.00
2022-09-07T05:54:41.627Z,9.25
2022-09-07T05:57:13.649Z,9.00
2022-09-07T05:59:42.333Z,8.00
2022-09-07T06:02:18.631Z,9.00
2022-09-07T06:04:48.667Z,9.75
2022-09-07T06:07:22.199Z,9.00
2022-09-07T06:12:39.981Z,9.25
2022-09-07T06:15:09.264Z,9.00
2022-09-07T06:17:37.805Z,10.00
2022-09-07T06:20:07.898Z,12.00
2022-09-07T06:22:39.886Z,10.25
2022-09-07T06:25:08.712Z,11.25
2022-09-07T06:27:37.298Z,8.50
2022-09-07T06:30:06.574Z,9.75
2022-09-07T06:35:11.312Z,9.25
2022-09-07T06:37:40.251Z,8.00
2022-09-07T06:40:09.999Z,8.75
2022-09-07T06:42:39.280Z,8.25
2022-09-07T06:45:08.525Z,8.25
2022-09-07T06:47:37.796Z,8.75
2022-09-07T06:50:06.634Z,8.00
2022-09-07T06:55:29.208Z,8.75
2022-09-07T06:57:57.879Z,9.50
2022-09-07T07:00:26.421Z,9.50
2022-09-07T07:02:55.142Z,8.50
2022-09-07T07:05:23.684Z,8.50
2022-09-07T07:07:52.271Z,8.25
2022-09-07T07:10:24.618Z,7.25
2022-09-07T07:12:58.469Z,8.25
2022-09-07T07:15:31.860Z,9.50
2022-09-07T07:18:13.673Z,8.50
2022-09-07T07:20:48.790Z,8.25
2022-09-07T07:23:17.415Z,10.25
2022-09-07T07:25:46.169Z,9.00
2022-09-07T07:31:09.093Z,8.00
2022-09-07T07:33:39.751Z,10.50
2022-09-07T07:36:19.410Z,8.00
2022-09-07T07:39:05.336Z,8.50
2022-09-07T07:44:23.101Z,7.25
2022-09-07T07:46:52.548Z,9.00
2022-09-07T07:49:21.377Z,7.50
2022-09-07T07:54:38.549Z,8.50
2022-09-07T07:57:07.917Z,7.25
2022-09-07T07:59:37.041Z,6.75
2022-09-07T08:02:11.489Z,9.00
2022-09-07T08:04:40.132Z,8.00
2022-09-07T08:07:11.022Z,8.00
2022-09-07T08:09:45.218Z,9.00
2022-09-07T08:12:17.702Z,9.50
2022-09-07T08:14:48.127Z,6.75
2022-09-07T08:17:18.854Z,8.25
2022-09-07T08:19:47.338Z,7.00
2022-09-07T08:22:15.785Z,8.75
2022-09-07T08:24:44.231Z,9.75
2022-09-07T08:27:12.785Z,10.25
2022-09-07T08:29:41.283Z,10.25
2022-09-07T08:32:09.758Z,10.00
2022-09-07T08:34:38.463Z,11.25
2022-09-07T08:37:06.950Z,8.50
2022-09-07T08:39:35.510Z,11.00
2022-09-07T08:42:09.662Z,8.25
2022-09-07T08:44:52.379Z,11.25
2022-09-07T08:47:54.178Z,7.75
2022-09-07T08:50:39.076Z,8.00
2022-09-07T08:53:14.830Z,9.00
2022-09-07T08:55:52.229Z,9.00
2022-09-07T08:58:48.240Z,8.75
2022-09-07T09:01:34.588Z,9.25
2022-09-07T09:04:21.100Z,8.75
2022-09-07T09:07:32.101Z,9.25
2022-09-07T09:10:29.493Z,8.75
2022-09-07T09:13:20.688Z,9.50
2022-09-07T09:15:55.153Z,8.75
2022-09-07T09:18:23.649Z,8.00
2022-09-07T09:21:02.358Z,9.25
2022-09-07T09:23:40.202Z,9.25
2022-09-07T09:26:12.773Z,8.00
2022-09-07T09:28:41.702Z,10.75
2022-09-07T09:31:37.571Z,9.50
2022-09-07T09:34:08.675Z,13.00
2022-09-07T09:36:43.549Z,9.25
2022-09-07T09:39:37.703Z,9.00
2022-09-07T09:42:12.008Z,8.00
2022-09-07T09:44:41.342Z,10.00
2022-09-07T09:47:30.632Z,9.50
2022-09-07T09:50:06.355Z,9.75
2022-09-07T09:52:47.570Z,10.25
2022-09-07T09:55:35.509Z,10.00
2022-09-07T10:01:24.809Z,8.00
2022-09-07T10:06:22.496Z,9.25
2022-09-07T10:08:56.667Z,9.00
2022-09-07T10:14:43.794Z,9.00
2022-09-07T10:17:44.865Z,10.75
2022-09-07T10:20:20.987Z,8.50
2022-09-07T10:22:55.539Z,6.50
2022-09-07T10:25:33.301Z,8.00
2022-09-07T10:28:07.614Z,7.25
2022-09-07T10:31:32.777Z,7.00
2022-09-07T10:34:27.238Z,10.25
2022-09-07T10:37:10.814Z,7.75
2022-09-07T10:39:50.019Z,6.00
2022-09-07T10:42:24.547Z,9.75
2022-09-07T10:45:12.823Z,9.75
2022-09-07T10:47:50.236Z,10.00
2022-09-07T10:50:52.924Z,9.25
2022-09-07T10:53:42.128Z,8.00
2022-09-07T10:56:28.029Z,6.25
2022-09-07T10:59:03.277Z,8.00
2022-09-07T11:01:55.512Z,7.50
2022-09-07T11:04:47.838Z,8.00
2022-09-07T11:07:33.691Z,9.00
2022-09-07T11:10:05.121Z,7.75
2022-09-07T11:12:39.095Z,8.00
2022-09-07T11:15:16.694Z,8.75
2022-09-07T11:17:52.956Z,8.25
2022-09-07T11:20:39.614Z,8.00
2022-09-07T11:23:20.825Z,7.75
2022-09-07T11:26:12.938Z,8.25
2022-09-07T11:32:04.663Z,10.00
2022-09-07T11:34:59.258Z,9.25
2022-09-07T11:37:39.936Z,8.25
2022-09-07T11:40:15.501Z,7.50
2022-09-07T11:42:49.819Z,9.00
2022-09-07T11:45:37.070Z,9.00
2022-09-07T11:48:21.226Z,8.50
2022-09-07T11:50:56.480Z,8.00
2022-09-07T11:53:39.498Z,9.75
2022-09-07T11:56:23.428Z,10.25
2022-09-07T11:58:58.030Z,10.00
2022-09-07T12:01:55.573Z,7.75
2022-09-07T12:04:55.536Z,8.00
2022-09-07T12:07:42.329Z,9.00
2022-09-07T12:10:31.773Z,8.50
2022-09-07T12:13:00.293Z,9.50
2022-09-07T12:15:34.846Z,9.25
2022-09-07T12:18:25.819Z,8.00
2022-09-07T12:20:54.494Z,8.50
2022-09-07T12:23:46.959Z,8.00
2022-09-07T12:26:39.844Z,8.00
2022-09-07T12:29:22.037Z,9.25
2022-09-07T12:32:52.797Z,8.00
2022-09-07T12:34:52.749Z,8.75
2022-09-07T12:37:39.558Z,7.50
2022-09-07T12:40:33.438Z,10.50
2022-09-07T12:43:14.236Z,9.25
2022-09-07T12:45:43.194Z,8.25
2022-09-07T12:48:17.397Z,8.00
2022-09-07T12:50:59.986Z,10.00
2022-09-07T12:53:43.193Z,9.00
2022-09-07T12:56:35.109Z,9.00
2022-09-07T12:59:19.764Z,10.00
2022-09-07T13:01:57.705Z,9.75
2022-09-07T13:04:56.369Z,9.50
2022-09-07T13:07:57.355Z,9.00
2022-09-07T13:10:32.092Z,8.25
2022-09-07T13:16:29.075Z,8.75
2022-09-07T13:18:57.620Z,9.25
2022-09-07T13:21:51.078Z,10.75
2022-09-07T13:27:32.254Z,9.50
2022-09-07T13:30:07.161Z,8.00
2022-09-07T13:35:27.327Z,7.25
2022-09-07T13:38:04.792Z,8.50
2022-09-07T13:40:41.141Z,9.00
2022-09-07T13:43:18.842Z,9.75
2022-09-07T13:45:56.582Z,9.75
2022-09-07T13:48:43.091Z,10.00
2022-09-07T13:51:26.010Z,12.25
2022-09-07T13:53:57.655Z,9.00
2022-09-07T13:56:34.431Z,8.50
2022-09-07T13:59:20.634Z,7.25
2022-09-07T14:01:50.697Z,8.00
2022-09-07T14:04:44.566Z,9.00
2022-09-07T14:07:23.983Z,9.25
2022-09-07T14:10:13.389Z,7.50
2022-09-07T14:12:50.083Z,9.00
2022-09-07T14:15:23.323Z,8.50
2022-09-07T14:18:03.387Z,8.75
2022-09-07T14:20:33.524Z,9.25
2022-09-07T14:23:02.036Z,8.00
2022-09-07T14:26:16.007Z,9.25
2022-09-07T14:28:38.591Z,9.00
2022-09-07T14:31:11.415Z,8.50
2022-09-07T14:33:44.861Z,10.25
2022-09-07T14:36:39.458Z,10.00
2022-09-07T14:39:06.866Z,10.25
2022-09-07T14:41:39.561Z,9.75
2022-09-07T14:44:08.026Z,9.50
2022-09-07T14:46:37.911Z,11.50
2022-09-07T14:49:24.420Z,10.50
2022-09-07T14:51:55.365Z,9.75
2022-09-07T14:54:35.284Z,10.00
2022-09-07T14:57:08.267Z,9.25
2022-09-07T14:59:49.226Z,9.25
2022-09-07T15:02:20.939Z,9.25
2022-09-07T15:05:10.977Z,10.50
2022-09-07T15:07:41.911Z,8.75
2022-09-07T15:10:23.149Z,9.00
2022-09-07T15:12:57.046Z,10.25
2022-09-07T15:15:40.063Z,10.75
2022-09-07T15:19:03.167Z,11.00
2022-09-07T15:21:37.665Z,8.00
2022-09-07T15:24:07.771Z,9.00
2022-09-07T15:29:29.755Z,9.25
2022-09-07T15:32:03.814Z,9.50
2022-09-07T15:34:34.357Z,10.75
2022-09-07T15:37:04.091Z,8.25
2022-09-07T15:39:52.818Z,8.00
2022-09-07T15:45:11.183Z,10.25
2022-09-07T15:47:47.499Z,9.50
2022-09-07T15:50:19.308Z,8.75
2022-09-07T15:52:47.744Z,9.50
2022-09-07T15:55:17.801Z,9.00
2022-09-07T15:57:54.608Z,11.25
2022-09-07T16:00:28.268Z,9.25
2022-09-07T16:03:12.192Z,9.25
2022-09-07T16:05:45.319Z,9.00
2022-09-07T16:11:18.447Z,9.50
2022-09-07T16:13:48.253Z,9.00
2022-09-07T16:16:17.261Z,11.50
2022-09-07T16:18:47.173Z,8.00
2022-09-07T16:21:16.764Z,9.75
2022-09-07T16:23:48.969Z,9.75
2022-09-07T16:26:19.587Z,9.00
2022-09-07T16:28:50.478Z,10.25
2022-09-07T16:31:30.122Z,9.50
2022-09-07T16:33:59.193Z,8.00
2022-09-07T16:36:27.759Z,9.50
2022-09-07T16:38:58.612Z,9.50
2022-09-07T16:41:32.698Z,11.00
2022-09-07T16:44:02.221Z,9.25
2022-09-07T16:46:37.416Z,10.75
2022-09-07T16:49:08.223Z,9.50
2022-09-07T16:51:37.398Z,10.25
2022-09-07T16:54:06.622Z,11.75
2022-09-07T16:56:38.940Z,10.00
2022-09-07T16:59:10.722Z,9.00
2022-09-07T17:01:39.984Z,11.00
2022-09-07T17:04:11.320Z,10.50
2022-09-07T17:06:41.547Z,9.25
2022-09-07T17:09:10.113Z,9.25
2022-09-07T17:11:38.719Z,9.00
2022-09-07T17:14:07.634Z,11.00
2022-09-07T17:16:39.181Z,8.25
2022-09-07T17:22:00.814Z,11.00
2022-09-07T17:24:31.876Z,9.00
2022-09-07T17:27:01.020Z,10.00
2022-09-07T17:29:31.474Z,8.00
2022-09-07T17:34:48.906Z,8.25
2022-09-07T17:37:17.746Z,8.25
2022-09-07T17:39:46.323Z,9.00
2022-09-07T17:42:14.876Z,10.00
2022-09-07T17:44:43.361Z,7.50
2022-09-07T17:47:12.167Z,8.00
2022-09-07T17:49:40.956Z,11.25
2022-09-07T17:52:09.439Z,10.00
2022-09-07T17:54:37.932Z,10.00
2022-09-07T17:57:06.951Z,9.50
2022-09-07T18:02:23.934Z,9.00
2022-09-07T18:04:52.542Z,8.00
2022-09-07T18:07:21.014Z,9.00
2022-09-07T18:09:49.611Z,8.50
2022-09-07T18:12:18.060Z,10.00
2022-09-07T18:14:46.622Z,9.50
2022-09-07T18:17:15.079Z,9.00
2022-09-07T18:19:43.574Z,9.75
2022-09-07T18:22:12.162Z,12.00
2022-09-07T18:24:40.667Z,9.00
2022-09-07T18:27:09.373Z,9.00
2022-09-07T18:29:38.341Z,9.50
2022-09-07T18:32:09.682Z,10.75
2022-09-07T18:34:41.320Z,8.75
2022-09-07T18:37:12.992Z,12.00
2022-09-07T18:39:41.780Z,11.00
2022-09-07T18:42:11.274Z,9.25
2022-09-07T18:47:29.537Z,9.00
2022-09-07T18:49:58.824Z,9.00
2022-09-07T18:55:17.623Z,10.75
2022-09-07T18:57:46.261Z,7.75
2022-09-07T19:00:16.006Z,8.00
2022-09-07T19:02:44.829Z,9.75
2022-09-07T19:08:04.342Z,7.00
2022-09-07T19:10:38.205Z,9.25
2022-09-07T19:13:06.728Z,7.50
2022-09-07T19:15:37.270Z,9.00
2022-09-07T19:18:07.631Z,10.75
2022-09-07T19:20:36.923Z,8.75
2022-09-07T19:23:06.557Z,8.50
2022-09-07T19:25:34.989Z,10.25
2022-09-07T19:28:03.533Z,8.50
2022-09-07T19:30:32.309Z,11.25
2022-09-07T19:33:04.095Z,9.00
2022-09-07T19:35:36.702Z,8.00
2022-09-07T19:38:05.455Z,6.75
2022-09-07T19:40:33.921Z,7.00
2022-09-07T19:43:02.437Z,8.75
2022-09-07T19:45:31.202Z,6.25
2022-09-07T19:47:59.758Z,7.25
2022-09-07T19:50:28.765Z,8.00
2022-09-07T19:52:57.221Z,8.00
2022-09-07T19:55:25.708Z,9.00
2022-09-07T19:57:54.402Z,8.00
2022-09-07T20:00:24.128Z,7.75
2022-09-07T20:02:53.464Z,8.00
2022-09-07T20:05:22.041Z,6.50
2022-09-07T20:07:50.655Z,7.00
2022-09-07T20:10:19.112Z,6.75
2022-09-07T20:12:47.668Z,7.50
2022-09-07T20:15:16.234Z,6.50
2022-09-07T20:17:44.741Z,10.00
2022-09-07T20:20:13.185Z,7.75
2022-09-07T20:22:41.673Z,6.75
2022-09-07T20:25:13.272Z,6.00
2022-09-07T20:27:42.204Z,7.25
2022-09-07T20:30:11.375Z,7.50
2022-09-07T20:32:39.885Z,6.75
2022-09-07T20:35:08.470Z,7.75
2022-09-07T20:37:37.148Z,7.50
2022-09-07T20:40:07.464Z,6.75
2022-09-07T20:42:36.188Z,7.25
2022-09-07T20:45:04.995Z,6.75
2022-09-07T20:47:33.499Z,8.00
2022-09-07T20:50:01.996Z,7.00
2022-09-07T20:52:30.491Z,7.50
2022-09-07T20:54:58.978Z,7.00
2022-09-07T20:57:27.534Z,6.75
2022-09-07T20:59:56.020Z,9.00
2022-09-07T21:02:24.419Z,6.25
2022-09-07T21:04:53.282Z,7.00
2022-09-07T21:07:21.739Z,8.25
2022-09-07T21:09:50.875Z,6.00
2022-09-07T21:12:19.331Z,6.75
2022-09-07T21:14:47.896Z,8.75
2022-09-07T21:17:16.383Z,8.50
2022-09-07T21:19:44.867Z,7.00
2022-09-07T21:22:13.368Z,7.00
2022-09-07T21:24:41.821Z,7.00
2022-09-07T21:27:10.407Z,7.75
2022-09-07T21:29:38.862Z,7.50
2022-09-07T21:32:07.318Z,7.00
2022-09-07T21:34:35.794Z,7.75
2022-09-07T21:37:04.179Z,5.75
2022-09-07T21:39:32.769Z,5.75
2022-09-07T21:42:01.242Z,7.75
2022-09-07T21:44:29.759Z,8.75
2022-09-07T21:46:58.227Z,7.50
2022-09-07T21:49:26.790Z,8.50
2022-09-07T21:51:55.237Z,6.25
2022-09-07T21:54:23.722Z,9.50
2022-09-07T21:56:54.279Z,8.50
2022-09-07T21:59:22.983Z,7.75
2022-09-07T22:01:51.505Z,9.25
2022-09-07T22:04:20.298Z,8.00
2022-09-07T22:06:48.851Z,7.50
2022-09-07T22:09:17.548Z,8.00
2022-09-07T22:11:46.264Z,8.50
2022-09-07T22:14:16.748Z,8.50
2022-09-07T22:16:45.474Z,6.50
2022-09-07T22:19:14.130Z,8.25
2022-09-07T22:21:42.637Z,7.25
2022-09-07T22:24:13.682Z,8.25
2022-09-07T22:26:42.787Z,9.00
2022-09-07T22:29:13.473Z,8.00
2022-09-07T22:31:42.773Z,8.00
2022-09-07T22:34:12.144Z,8.75
2022-09-07T22:36:43.338Z,9.00
2022-09-07T22:39:17.622Z,8.00
2022-09-07T22:41:48.185Z,8.00
2022-09-07T22:44:19.161Z,8.00
2022-09-07T22:46:49.270Z,8.25
2022-09-07T22:49:18.842Z,8.00
2022-09-07T22:51:47.679Z,6.50
2022-09-07T22:54:16.252Z,10.00
2022-09-07T22:56:45.010Z,7.00
2022-09-07T22:59:14.934Z,6.75
2022-09-07T23:01:43.642Z,9.00
2022-09-07T23:04:14.237Z,8.00
2022-09-07T23:06:44.522Z,9.00
2022-09-07T23:09:15.238Z,8.25
2022-09-07T23:11:44.841Z,8.25
2022-09-07T23:14:16.596Z,7.50
2022-09-07T23:16:46.043Z,8.00
2022-09-07T23:19:16.368Z,6.25
2022-09-07T23:21:45.753Z,8.00
2022-09-07T23:24:18.492Z,7.00
2022-09-07T23:26:47.945Z,5.75
2022-09-07T23:29:17.404Z,8.00
2022-09-07T23:31:48.169Z,7.25
2022-09-07T23:34:17.121Z,8.25
2022-09-07T23:36:47.726Z,6.75
2022-09-07T23:39:16.400Z,7.75
2022-09-07T23:41:44.892Z,7.00
2022-09-07T23:44:13.421Z,8.00
2022-09-07T23:46:41.939Z,7.50
2022-09-07T23:49:10.453Z,7.00
2022-09-07T23:51:38.840Z,8.00
2022-09-07T23:54:07.364Z,8.50
2022-09-07T23:56:38.869Z,7.00
2022-09-07T23:59:07.426Z,9.50
